Terminal Aerodrome Forecast
Issued by NWS

Home | Current Version | Previous Version | Text Only | Print | Product List | Glossary On
Versions: 1 2 3 4 5 6 7 8 9 10 11 12 13 14 15 16 17
000
FTUS44 KLIX 251725
TAFHUM
TAF
KHUM 251725Z 2518/2618 09004KT P6SM VCTS SCT035CB BKN060
      TEMPO 2519/2523 VRB28KT 2SM TSRA BKN030CB
     FM260000 18004KT P6SM SCT045 BKN140
     FM260600 VRB03KT P6SM SCT090 BKN250
     FM261500 16004KT P6SM SCT030 OVC090=

USA.gov is the U.S. government's official web portal to all federal, state and local government web resources and services.